createdAt,value
2022-12-14T00:01:28.885Z,18.60
2022-12-14T00:03:56.649Z,18.30
2022-12-14T00:06:25.674Z,18.23
2022-12-14T00:08:53.972Z,17.88
2022-12-14T00:11:22.490Z,17.85
2022-12-14T00:13:54.473Z,17.67
2022-12-14T00:16:23.214Z,21.33
2022-12-14T00:18:52.446Z,21.02
2022-12-14T00:21:20.762Z,17.48
2022-12-14T00:23:48.432Z,19.73
2022-12-14T00:26:17.224Z,19.55
2022-12-14T00:28:45.635Z,17.33
2022-12-14T00:31:13.279Z,19.98
2022-12-14T00:33:41.093Z,18.10
2022-12-14T00:36:09.603Z,17.38
2022-12-14T00:38:37.254Z,19.92
2022-12-14T00:41:05.061Z,18.38
2022-12-14T00:43:32.726Z,16.35
2022-12-14T00:46:00.257Z,18.33
2022-12-14T00:48:28.129Z,19.98
2022-12-14T00:50:56.385Z,16.55
2022-12-14T00:53:24.098Z,18.30
2022-12-14T00:55:51.946Z,18.45
2022-12-14T00:58:20.625Z,18.33
2022-12-14T01:00:48.665Z,16.70
2022-12-14T01:03:16.208Z,16.40
2022-12-14T01:05:48.999Z,15.80
2022-12-14T01:08:16.957Z,17.70
2022-12-14T01:10:44.884Z,20.17
2022-12-14T01:13:12.177Z,17.17
2022-12-14T01:15:43.948Z,20.08
2022-12-14T01:18:11.294Z,17.65
2022-12-14T01:20:38.537Z,22.73
2022-12-14T01:23:05.825Z,16.85
2022-12-14T01:25:33.246Z,16.65
2022-12-14T01:28:00.620Z,20.13
2022-12-14T01:30:27.899Z,19.45
2022-12-14T01:32:55.354Z,16.25
2022-12-14T01:35:22.607Z,16.08
2022-12-14T01:37:49.916Z,20.10
2022-12-14T01:40:17.833Z,20.88
2022-12-14T01:42:45.203Z,18.45
2022-12-14T01:45:17.952Z,19.45
2022-12-14T01:47:46.931Z,17.80
2022-12-14T01:50:27.032Z,17.40
2022-12-14T01:52:57.123Z,18.45
2022-12-14T01:55:48.674Z,17.90
2022-12-14T01:58:21.255Z,18.10
2022-12-14T02:00:51.305Z,17.13
2022-12-14T02:03:21.188Z,17.90
2022-12-14T02:05:52.627Z,16.20
2022-12-14T02:08:21.741Z,16.17
2022-12-14T02:10:50.275Z,19.90
2022-12-14T02:13:21.151Z,20.00
2022-12-14T02:15:48.739Z,17.45
2022-12-14T02:18:19.235Z,18.50
2022-12-14T02:20:55.429Z,18.45
2022-12-14T02:23:44.495Z,16.15
2022-12-14T02:26:30.346Z,18.25
2022-12-14T02:29:16.121Z,20.65
2022-12-14T02:31:54.835Z,20.60
2022-12-14T02:34:41.023Z,17.02
2022-12-14T02:37:14.288Z,17.85
2022-12-14T02:39:43.626Z,15.63
2022-12-14T02:42:15.433Z,17.30
2022-12-14T02:44:45.497Z,16.55
2022-12-14T02:47:25.640Z,17.05
2022-12-14T02:49:53.325Z,17.38
2022-12-14T02:52:30.085Z,18.23
2022-12-14T02:55:01.572Z,17.00
2022-12-14T02:57:42.381Z,17.55
2022-12-14T03:00:09.962Z,17.02
2022-12-14T03:02:39.369Z,19.05
2022-12-14T03:05:09.588Z,18.38
2022-12-14T03:07:37.096Z,18.08
2022-12-14T03:10:23.340Z,17.27
2022-12-14T03:12:55.238Z,15.38
2022-12-14T03:15:24.205Z,17.38
2022-12-14T03:17:53.676Z,17.95
2022-12-14T03:20:23.804Z,16.90
2022-12-14T03:23:23.549Z,19.45
2022-12-14T03:25:50.860Z,19.85
2022-12-14T03:28:21.222Z,16.25
2022-12-14T03:31:00.654Z,16.60
2022-12-14T03:33:28.943Z,17.63
2022-12-14T03:36:04.513Z,16.92
2022-12-14T03:38:36.952Z,18.33
2022-12-14T03:41:36.712Z,20.50
2022-12-14T03:44:10.273Z,17.98
2022-12-14T03:46:41.751Z,18.63
2022-12-14T03:49:11.905Z,17.40
2022-12-14T03:51:48.408Z,16.73
2022-12-14T03:54:15.765Z,18.05
2022-12-14T03:56:42.946Z,16.83
2022-12-14T03:59:15.450Z,23.20
2022-12-14T04:01:46.708Z,17.42
2022-12-14T04:04:19.505Z,20.10
2022-12-14T04:07:15.775Z,18.90
2022-12-14T04:09:43.129Z,18.58
2022-12-14T04:12:36.318Z,20.25
2022-12-14T04:15:28.509Z,16.13
2022-12-14T04:18:16.161Z,17.85
2022-12-14T04:20:47.014Z,18.30
2022-12-14T04:23:37.440Z,15.25
2022-12-14T04:26:06.153Z,19.42
2022-12-14T04:28:56.943Z,17.45
2022-12-14T04:31:26.133Z,17.73
2022-12-14T04:33:57.828Z,18.00
2022-12-14T04:36:37.074Z,18.60
2022-12-14T04:39:09.128Z,16.42
2022-12-14T04:41:38.822Z,18.15
2022-12-14T04:44:13.048Z,18.27
2022-12-14T04:46:41.170Z,17.08
2022-12-14T04:49:09.846Z,20.58
2022-12-14T04:51:37.098Z,17.63
2022-12-14T04:54:09.754Z,15.93
2022-12-14T04:56:47.467Z,17.30
2022-12-14T04:59:14.786Z,20.15
2022-12-14T05:02:00.915Z,16.85
2022-12-14T05:04:42.330Z,17.45
2022-12-14T05:07:09.615Z,19.27
2022-12-14T05:09:42.760Z,17.85
2022-12-14T05:12:10.460Z,19.42
2022-12-14T05:14:41.204Z,20.17
2022-12-14T05:17:09.528Z,19.17
2022-12-14T05:19:37.865Z,20.90
2022-12-14T05:22:06.709Z,18.50
2022-12-14T05:24:34.157Z,18.02
2022-12-14T05:27:01.527Z,18.77
2022-12-14T05:29:28.896Z,19.23
2022-12-14T05:31:56.308Z,17.67
2022-12-14T05:34:23.854Z,19.05
2022-12-14T05:36:51.240Z,16.90
2022-12-14T05:39:18.589Z,16.65
2022-12-14T05:41:46.174Z,17.67
2022-12-14T05:44:13.461Z,19.17
2022-12-14T05:46:40.835Z,21.52
2022-12-14T05:49:08.222Z,19.85
2022-12-14T05:51:35.572Z,18.85
2022-12-14T05:54:02.876Z,19.73
2022-12-14T05:56:30.395Z,18.30
2022-12-14T05:58:58.013Z,18.73
2022-12-14T06:01:25.495Z,16.85
2022-12-14T06:03:53.602Z,18.88
2022-12-14T06:06:21.348Z,17.88
2022-12-14T06:08:48.687Z,18.15
2022-12-14T06:11:17.712Z,18.88
2022-12-14T06:13:45.439Z,18.42
2022-12-14T06:16:16.600Z,18.83
2022-12-14T06:18:44.120Z,19.13
2022-12-14T06:21:11.780Z,19.20
2022-12-14T06:23:39.327Z,19.30
2022-12-14T06:26:07.043Z,18.08
2022-12-14T06:28:34.479Z,21.67
2022-12-14T06:31:02.070Z,16.40
2022-12-14T06:33:30.398Z,18.35
2022-12-14T06:35:57.852Z,18.45
2022-12-14T06:38:25.159Z,18.80
2022-12-14T06:40:52.501Z,18.55
2022-12-14T06:43:20.588Z,20.27
2022-12-14T06:45:47.857Z,17.40
2022-12-14T06:48:15.492Z,20.35
2022-12-14T06:50:42.734Z,18.52
2022-12-14T06:53:13.558Z,18.08
2022-12-14T06:55:40.966Z,19.52
2022-12-14T06:58:10.831Z,19.23
2022-12-14T07:00:38.142Z,18.85
2022-12-14T07:03:05.683Z,18.77
2022-12-14T07:05:33.081Z,19.00
2022-12-14T07:08:00.537Z,18.02
2022-12-14T07:10:28.003Z,19.55
2022-12-14T07:12:55.237Z,18.73
2022-12-14T07:15:22.744Z,18.52
2022-12-14T07:17:50.017Z,17.65
2022-12-14T07:20:17.685Z,21.58
2022-12-14T07:22:44.992Z,20.00
2022-12-14T07:25:16.822Z,18.15
2022-12-14T07:27:44.132Z,22.65
2022-12-14T07:30:11.663Z,19.35
2022-12-14T07:32:38.928Z,18.50
2022-12-14T07:35:07.303Z,20.33
2022-12-14T07:37:36.904Z,18.80
2022-12-14T07:40:04.663Z,19.35
2022-12-14T07:42:31.979Z,20.60
2022-12-14T07:45:01.272Z,20.88
2022-12-14T07:47:31.459Z,20.70
2022-12-14T07:49:58.775Z,22.05
2022-12-14T07:52:26.246Z,19.95
2022-12-14T07:54:53.569Z,21.42
2022-12-14T07:57:20.820Z,25.67
2022-12-14T07:59:52.925Z,56.05
2022-12-14T08:02:24.600Z,77.78
2022-12-14T08:04:51.966Z,82.13
2022-12-14T08:07:19.490Z,124.53
2022-12-14T08:09:46.820Z,130.93
2022-12-14T08:12:14.176Z,110.65
2022-12-14T08:14:41.404Z,84.82
2022-12-14T08:17:08.859Z,50.15
2022-12-14T08:19:36.370Z,29.13
2022-12-14T08:22:03.942Z,21.48
2022-12-14T08:24:31.322Z,22.38
2022-12-14T08:26:58.967Z,21.90
2022-12-14T08:29:26.221Z,24.60
2022-12-14T08:31:56.542Z,24.13
2022-12-14T08:34:24.054Z,21.15
2022-12-14T08:36:51.580Z,22.85
2022-12-14T08:39:19.019Z,25.13
2022-12-14T08:41:46.438Z,25.50
2022-12-14T08:44:17.031Z,26.30
2022-12-14T08:46:44.577Z,24.17
2022-12-14T08:49:13.180Z,24.40
2022-12-14T08:51:40.457Z,21.27
2022-12-14T08:54:07.827Z,22.83
2022-12-14T08:56:35.198Z,21.50
2022-12-14T08:59:02.682Z,22.13
2022-12-14T09:01:34.049Z,23.38
2022-12-14T09:04:08.510Z,23.25
2022-12-14T09:06:37.342Z,22.30
2022-12-14T09:09:09.150Z,20.27
2022-12-14T09:11:40.991Z,21.48
2022-12-14T09:14:08.247Z,21.63
2022-12-14T09:16:35.779Z,22.27
2022-12-14T09:19:03.354Z,22.63
2022-12-14T09:21:31.729Z,22.00
2022-12-14T09:23:59.990Z,22.55
2022-12-14T09:26:28.109Z,23.92
2022-12-14T09:28:56.657Z,21.05
2022-12-14T09:31:25.146Z,24.15
2022-12-14T09:33:52.696Z,21.98
2022-12-14T09:36:21.344Z,21.88
2022-12-14T09:38:51.860Z,25.55
2022-12-14T09:41:35.317Z,21.45
2022-12-14T09:44:18.813Z,20.13
2022-12-14T09:46:49.419Z,23.48
2022-12-14T09:49:32.554Z,20.65
2022-12-14T09:52:01.898Z,18.70
2022-12-14T09:54:34.320Z,18.40
2022-12-14T09:57:24.485Z,20.40
2022-12-14T09:59:53.173Z,18.77
2022-12-14T10:02:33.157Z,19.70
2022-12-14T10:05:16.550Z,20.02
2022-12-14T10:07:52.878Z,17.45
2022-12-14T10:10:40.552Z,16.95
2022-12-14T10:13:26.680Z,17.27
2022-12-14T10:15:57.191Z,17.65
2022-12-14T10:21:28.425Z,15.85
2022-12-14T10:23:57.507Z,17.60
2022-12-14T10:26:28.325Z,16.35
2022-12-14T10:29:03.522Z,17.10
2022-12-14T10:31:35.498Z,15.70
2022-12-14T10:34:13.788Z,15.18
2022-12-14T10:36:50.843Z,16.25
2022-12-14T10:39:22.590Z,15.68
2022-12-14T10:42:01.921Z,15.75
2022-12-14T10:44:35.430Z,13.50
2022-12-14T10:47:15.372Z,14.48
2022-12-14T10:49:58.265Z,14.40
2022-12-14T10:52:29.116Z,15.38
2022-12-14T10:54:58.061Z,13.63
2022-12-14T10:57:29.441Z,14.75
2022-12-14T11:00:08.461Z,13.88
2022-12-14T11:02:39.506Z,15.75
2022-12-14T11:05:37.241Z,13.65
2022-12-14T11:08:08.464Z,13.02
2022-12-14T11:10:36.971Z,14.77
2022-12-14T11:13:06.171Z,13.57
2022-12-14T11:15:34.309Z,69.35
2022-12-14T11:18:03.967Z,26.80
2022-12-14T11:20:31.881Z,29.58
2022-12-14T11:23:06.188Z,27.63
2022-12-14T11:25:43.721Z,22.52
2022-12-14T11:28:36.088Z,14.73
2022-12-14T11:31:04.721Z,16.70
2022-12-14T11:33:34.373Z,14.90
2022-12-14T11:36:01.749Z,14.80
2022-12-14T11:38:30.457Z,16.77
2022-12-14T11:40:58.315Z,14.50
2022-12-14T11:43:28.610Z,12.88
2022-12-14T11:45:57.532Z,14.85
2022-12-14T11:48:26.849Z,12.95
2022-12-14T11:50:55.753Z,12.82
2022-12-14T11:53:23.799Z,15.40
2022-12-14T11:55:54.303Z,11.98
2022-12-14T11:58:24.492Z,14.00
2022-12-14T12:00:53.218Z,14.30
2022-12-14T12:03:20.681Z,16.58
2022-12-14T12:05:48.060Z,26.13
2022-12-14T12:08:35.480Z,17.20
2022-12-14T12:11:05.106Z,14.10
2022-12-14T12:13:36.672Z,16.23
2022-12-14T12:16:07.152Z,25.30
2022-12-14T12:18:46.035Z,12.57
2022-12-14T12:21:23.147Z,13.60
2022-12-14T12:23:53.373Z,12.45
2022-12-14T12:26:23.331Z,13.77
2022-12-14T12:29:11.005Z,12.52
2022-12-14T12:31:58.883Z,17.80
2022-12-14T12:34:33.857Z,14.88
2022-12-14T12:37:25.833Z,13.50
2022-12-14T12:39:53.135Z,15.75
2022-12-14T12:42:30.523Z,14.07
2022-12-14T12:45:21.046Z,20.90
2022-12-14T12:47:56.764Z,39.20
2022-12-14T12:50:27.276Z,32.28
2022-12-14T12:53:03.899Z,23.70
2022-12-14T12:55:35.937Z,20.73
2022-12-14T12:58:04.041Z,138.23
2022-12-14T13:00:32.628Z,23.45
2022-12-14T13:03:02.069Z,22.45
2022-12-14T13:05:47.815Z,18.40
2022-12-14T13:08:24.782Z,17.63
2022-12-14T13:11:25.705Z,15.27
2022-12-14T13:13:44.260Z,14.18
2022-12-14T13:16:15.649Z,12.45
2022-12-14T13:21:43.957Z,15.02
2022-12-14T13:24:18.813Z,17.42
2022-12-14T13:26:58.773Z,21.60
2022-12-14T13:29:50.048Z,18.58
2022-12-14T13:32:41.830Z,23.85
2022-12-14T13:35:41.377Z,23.65
2022-12-14T13:38:32.969Z,18.13
2022-12-14T13:41:10.492Z,16.30
2022-12-14T13:43:40.551Z,13.68
2022-12-14T13:46:12.664Z,14.80
2022-12-14T13:48:41.574Z,13.48
2022-12-14T13:51:11.739Z,21.58
2022-12-14T13:53:44.118Z,19.08
2022-12-14T13:56:27.849Z,15.75
2022-12-14T13:59:01.305Z,22.08
2022-12-14T14:01:46.942Z,11.93
2022-12-14T14:04:14.694Z,10.18
2022-12-14T14:06:43.176Z,11.30
2022-12-14T14:09:29.466Z,11.10
2022-12-14T14:12:16.751Z,11.73
2022-12-14T14:14:57.561Z,11.93
2022-12-14T14:17:37.064Z,12.43
2022-12-14T14:20:27.288Z,13.15
2022-12-14T14:23:23.842Z,13.23
2022-12-14T14:25:52.672Z,11.35
2022-12-14T14:28:29.683Z,11.55
2022-12-14T14:31:00.005Z,11.90
2022-12-14T14:33:49.497Z,11.27
2022-12-14T14:36:30.620Z,12.98
2022-12-14T14:38:59.511Z,14.18
2022-12-14T14:41:30.970Z,15.57
2022-12-14T14:44:00.852Z,14.38
2022-12-14T14:46:36.745Z,11.57
2022-12-14T14:49:05.066Z,11.80
2022-12-14T14:51:35.660Z,11.35
2022-12-14T14:55:06.480Z,12.73
2022-12-14T14:57:25.748Z,14.15
2022-12-14T14:59:58.716Z,15.32
2022-12-14T15:02:33.789Z,16.52
2022-12-14T15:07:49.399Z,17.88
2022-12-14T15:10:35.924Z,12.45
2022-12-14T15:13:06.415Z,12.05
2022-12-14T15:15:33.675Z,15.00
2022-12-14T15:18:17.024Z,11.38
2022-12-14T15:20:50.438Z,12.07
2022-12-14T15:23:18.007Z,11.98
2022-12-14T15:25:45.427Z,12.52
2022-12-14T15:28:19.221Z,11.50
2022-12-14T15:30:48.231Z,11.48
2022-12-14T15:33:24.248Z,12.20
2022-12-14T15:35:51.928Z,11.65
2022-12-14T15:38:28.477Z,15.80
2022-12-14T15:40:57.143Z,12.07
2022-12-14T15:43:25.284Z,14.60
2022-12-14T15:45:53.777Z,13.45
2022-12-14T15:48:25.475Z,11.65
2022-12-14T15:50:57.626Z,11.15
2022-12-14T15:53:33.887Z,11.00
2022-12-14T15:56:10.044Z,11.75
2022-12-14T15:58:40.635Z,13.10
2022-12-14T16:01:13.329Z,11.23
2022-12-14T16:03:42.472Z,14.25
2022-12-14T16:06:10.689Z,12.13
2022-12-14T16:08:39.312Z,12.80
2022-12-14T16:11:10.313Z,15.32
2022-12-14T16:13:39.919Z,14.05
2022-12-14T16:16:12.109Z,11.43
2022-12-14T16:18:50.698Z,11.95
2022-12-14T16:21:30.557Z,13.27
2022-12-14T16:23:58.605Z,13.82
2022-12-14T16:26:38.851Z,13.80
2022-12-14T16:29:07.417Z,14.32
2022-12-14T16:31:34.856Z,13.43
2022-12-14T16:34:10.321Z,17.10
2022-12-14T16:36:38.098Z,17.35
2022-12-14T16:39:16.063Z,19.20
2022-12-14T16:41:45.407Z,16.95
2022-12-14T16:44:31.471Z,20.67
2022-12-14T16:47:04.813Z,17.13
2022-12-14T16:49:33.649Z,18.05
2022-12-14T16:52:09.366Z,17.95
2022-12-14T16:54:37.997Z,22.42
2022-12-14T16:57:06.698Z,19.20
2022-12-14T16:59:36.884Z,22.20
2022-12-14T17:02:05.216Z,21.20
2022-12-14T17:04:35.070Z,22.58
2022-12-14T17:07:02.774Z,20.40
2022-12-14T17:09:33.383Z,22.58
2022-12-14T17:12:02.527Z,21.02
2022-12-14T17:14:29.856Z,21.52
2022-12-14T17:17:00.757Z,21.13
2022-12-14T17:19:32.702Z,16.05
2022-12-14T17:22:00.420Z,20.05
2022-12-14T17:24:27.770Z,19.70
2022-12-14T17:26:55.154Z,12.32
2022-12-14T17:29:27.120Z,23.48
2022-12-14T17:31:57.127Z,16.88
2022-12-14T17:34:25.336Z,15.50
2022-12-14T17:36:52.625Z,16.73
2022-12-14T17:39:20.629Z,14.18
2022-12-14T17:41:48.406Z,16.42
2022-12-14T17:44:16.706Z,13.15
2022-12-14T17:46:45.526Z,12.93
2022-12-14T17:49:14.160Z,13.48
2022-12-14T17:51:42.547Z,14.82
2022-12-14T17:54:17.519Z,11.57
2022-12-14T17:56:45.636Z,15.65
2022-12-14T17:59:13.145Z,11.27
2022-12-14T18:01:41.681Z,15.82
2022-12-14T18:04:09.288Z,12.73
2022-12-14T18:06:36.745Z,15.30
2022-12-14T18:09:05.925Z,13.23
2022-12-14T18:11:33.637Z,13.80
2022-12-14T18:14:01.243Z,17.85
2022-12-14T18:16:29.395Z,16.25
2022-12-14T18:18:58.144Z,16.83
2022-12-14T18:21:26.578Z,16.88
2022-12-14T18:23:54.198Z,15.40
2022-12-14T18:26:22.264Z,17.13
2022-12-14T18:28:50.178Z,18.98
2022-12-14T18:31:26.120Z,17.92
2022-12-14T18:33:53.564Z,17.35
2022-12-14T18:36:21.652Z,17.85
2022-12-14T18:38:49.748Z,20.20
2022-12-14T18:41:21.489Z,15.95
2022-12-14T18:43:48.938Z,16.30
2022-12-14T18:46:16.537Z,13.20
2022-12-14T18:48:44.511Z,14.55
2022-12-14T18:51:14.039Z,15.82
2022-12-14T18:53:42.765Z,38.22
2022-12-14T18:56:11.713Z,21.33
2022-12-14T18:58:41.957Z,15.35
2022-12-14T19:01:14.057Z,13.80
2022-12-14T19:03:41.578Z,15.43
2022-12-14T19:06:43.057Z,12.75
2022-12-14T19:08:58.920Z,10.45
2022-12-14T19:11:26.126Z,11.80
2022-12-14T19:13:53.622Z,14.40
2022-12-14T19:16:21.139Z,13.70
2022-12-14T19:18:48.430Z,13.07
2022-12-14T19:21:15.734Z,12.18
2022-12-14T19:23:43.198Z,10.77
2022-12-14T19:26:10.550Z,11.55
2022-12-14T19:28:38.252Z,13.00
2022-12-14T19:31:05.702Z,12.23
2022-12-14T19:33:35.820Z,12.65
2022-12-14T19:36:05.839Z,15.88
2022-12-14T19:38:34.897Z,15.25
2022-12-14T19:41:04.170Z,17.40
2022-12-14T19:43:32.212Z,11.75
2022-12-14T19:45:59.816Z,11.77
2022-12-14T19:48:27.404Z,11.25
2022-12-14T19:50:54.624Z,11.10
2022-12-14T19:53:23.978Z,11.85
2022-12-14T19:55:54.949Z,15.70
2022-12-14T19:58:24.879Z,20.20
2022-12-14T20:00:52.385Z,14.65
2022-12-14T20:03:22.937Z,13.30
2022-12-14T20:05:55.060Z,13.77
2022-12-14T20:08:22.636Z,17.33
2022-12-14T20:10:50.002Z,24.95
2022-12-14T20:13:17.394Z,13.63
2022-12-14T20:15:48.450Z,14.27
2022-12-14T20:18:15.820Z,12.75
2022-12-14T20:20:43.345Z,14.68
2022-12-14T20:23:10.674Z,11.60
2022-12-14T20:25:38.081Z,11.95
2022-12-14T20:28:05.822Z,11.80
2022-12-14T20:30:33.876Z,10.88
2022-12-14T20:33:01.385Z,11.02
2022-12-14T20:35:28.786Z,12.15
2022-12-14T20:37:56.370Z,11.18
2022-12-14T20:40:23.563Z,11.60
2022-12-14T20:42:51.383Z,10.82
2022-12-14T20:45:18.697Z,12.77
2022-12-14T20:47:46.056Z,10.75
2022-12-14T20:50:13.336Z,12.95
2022-12-14T20:52:40.644Z,10.10
2022-12-14T20:55:08.079Z,9.57
2022-12-14T20:57:35.438Z,11.63
2022-12-14T21:00:02.813Z,10.90
2022-12-14T21:02:30.314Z,10.65
2022-12-14T21:04:57.900Z,12.85
2022-12-14T21:07:26.529Z,10.80
2022-12-14T21:09:53.923Z,12.57
2022-12-14T21:12:21.492Z,12.13
2022-12-14T21:14:52.216Z,12.13
2022-12-14T21:17:21.358Z,14.25
2022-12-14T21:19:48.615Z,14.48
2022-12-14T21:22:17.448Z,11.80
2022-12-14T21:25:02.458Z,11.73
2022-12-14T21:27:30.763Z,14.45
2022-12-14T21:29:58.185Z,11.65
2022-12-14T21:32:25.826Z,12.55
2022-12-14T21:34:53.137Z,15.23
2022-12-14T21:37:20.927Z,12.63
2022-12-14T21:39:54.942Z,14.60
2022-12-14T21:42:24.090Z,13.15
2022-12-14T21:44:52.567Z,11.48
2022-12-14T21:47:21.427Z,10.52
2022-12-14T21:49:49.393Z,11.18
2022-12-14T21:52:19.323Z,9.48
2022-12-14T21:54:46.696Z,9.40
2022-12-14T21:57:33.752Z,8.75
2022-12-14T22:00:01.209Z,9.18
2022-12-14T22:02:28.996Z,9.88
2022-12-14T22:04:56.724Z,11.07
2022-12-14T22:07:24.958Z,8.93
2022-12-14T22:09:52.346Z,10.57
2022-12-14T22:12:19.627Z,9.05
2022-12-14T22:14:47.112Z,11.02
2022-12-14T22:17:14.773Z,10.63
2022-12-14T22:19:42.612Z,8.50
2022-12-14T22:22:16.377Z,8.88
2022-12-14T22:24:44.777Z,7.85
2022-12-14T22:27:12.908Z,11.80
2022-12-14T22:29:40.286Z,9.25
2022-12-14T22:32:08.640Z,11.80
2022-12-14T22:34:36.842Z,11.65
2022-12-14T22:37:04.331Z,9.82
2022-12-14T22:39:51.800Z,9.45
2022-12-14T22:42:27.722Z,8.20
2022-12-14T22:44:55.163Z,8.23
2022-12-14T22:47:22.714Z,9.23
2022-12-14T22:49:50.029Z,9.32
2022-12-14T22:52:22.904Z,10.05
2022-12-14T22:54:51.840Z,9.75
2022-12-14T22:57:19.475Z,9.75
2022-12-14T22:59:50.657Z,9.48
2022-12-14T23:02:18.220Z,10.77
2022-12-14T23:04:45.583Z,9.77
2022-12-14T23:07:17.453Z,9.32
2022-12-14T23:10:03.535Z,9.25
2022-12-14T23:12:49.798Z,9.32
2022-12-14T23:15:36.381Z,13.38
2022-12-14T23:18:24.074Z,11.90
2022-12-14T23:21:10.196Z,10.85
2022-12-14T23:24:00.209Z,11.35
2022-12-14T23:26:46.357Z,9.88
2022-12-14T23:29:32.794Z,11.73
2022-12-14T23:32:19.075Z,11.98
2022-12-14T23:35:05.120Z,10.63
2022-12-14T23:37:51.459Z,10.20
2022-12-14T23:40:37.587Z,12.43
2022-12-14T23:43:34.760Z,12.13
2022-12-14T23:46:21.744Z,11.77
2022-12-14T23:49:13.546Z,12.40
2022-12-14T23:52:01.651Z,14.90
2022-12-14T23:54:47.946Z,14.07
2022-12-14T23:57:34.327Z,12.93
